메인 페이지
METAR-TAF:

METAR-TAF

공항 :

Yüksekova, 터키

위도: 37-33-06N, 경도: 44-14-01E, 고도: 1950m

현재 날씨관측

예보는 1 시간 53분 전, 12:50시(UTC)에 발표되었습니다.
2kt
온도 1°C
습도 86%
기압 1020 hPa
시정: 4500m
고도 600ft 상공 구름 조금
고도 2000ft 상공 흐림
박무

METAR: LTCW 141250Z 27002KT 4500 BR FEW006 OVC020 01/M01 Q1020

시각: 17:43 (14:43 UTC)

예보

예보는 1 시간 3분 전, 13:40시(UTC)에 발표되었습니다.
예보 대상 시간: 14일 15시부터 14일 24시까지 (UTC)
여러 방향의 바람 2kt
시정: 6000m
고도 3000ft 상공 구름 보통
고도 7000ft 상공 구름 많음
전환 중
14일 16시부터 14일 18시까지 (UTC)
시정: 3100m
박무
전환 중
14일 18시부터 14일 20시까지 (UTC)
시정: 1400m

TAF: LTCW 141340Z 1415/1424 VRB02KT 6000 SCT030 BKN070 BECMG 1416/1418 3100 BR BECMG 1418/1420 1400

4,000개 이상의 공항 관측 자료 및 예보 (METAR 및 TAF 보고).

지도상에서 검색 가능한 기상관측소가 노란 점과 빨간 점으로 표시되어 있습니다.

기상관측소 명을 보려면 표시 위로 마우스를 이동하세요.

날씨 관측과 예보를 보려면 클릭하세요.

지도 변경 : 확대하려면 엑스 표시가 있는 녹색 버튼, 축소하려면 빼기 표시가 있는 녹색 버튼, 다음 페이지의 지도를 보려면 녹색 화살표를 클릭하세요.


METAR-TAF: